sensor_id;sensor_type;location;lat;lon;timestamp;pressure;altitude;pressure_sealevel;temperature;humidity
2549;BME280;1284;53.520;10.248;2023-04-20T00:01:46;101553.50;;;10.70;57.55
2549;BME280;1284;53.520;10.248;2023-04-20T00:04:13;101564.19;;;10.90;57.14
2549;BME280;1284;53.520;10.248;2023-04-20T00:06:40;101561.06;;;10.88;56.48
2549;BME280;1284;53.520;10.248;2023-04-20T00:09:07;101553.81;;;10.68;56.45
2549;BME280;1284;53.520;10.248;2023-04-20T00:11:32;101556.50;;;10.68;58.17
2549;BME280;1284;53.520;10.248;2023-04-20T00:13:58;101554.94;;;10.67;61.31
2549;BME280;1284;53.520;10.248;2023-04-20T00:16:24;101573.63;;;10.84;60.38
2549;BME280;1284;53.520;10.248;2023-04-20T00:18:49;101561.28;;;10.83;60.58
2549;BME280;1284;53.520;10.248;2023-04-20T00:21:15;101569.31;;;10.71;59.88
2549;BME280;1284;53.520;10.248;2023-04-20T00:23:41;101557.72;;;10.59;60.75
2549;BME280;1284;53.520;10.248;2023-04-20T00:26:07;101558.34;;;10.44;62.83
2549;BME280;1284;53.520;10.248;2023-04-20T00:28:32;101556.31;;;10.41;64.18
2549;BME280;1284;53.520;10.248;2023-04-20T00:30:58;101557.47;;;10.52;64.38
2549;BME280;1284;53.520;10.248;2023-04-20T00:33:24;101552.22;;;10.55;64.59
2549;BME280;1284;53.520;10.248;2023-04-20T00:35:50;101548.41;;;10.56;66.02
2549;BME280;1284;53.520;10.248;2023-04-20T00:38:18;101539.16;;;10.45;67.71
2549;BME280;1284;53.520;10.248;2023-04-20T00:40:43;101540.53;;;10.51;69.29
2549;BME280;1284;53.520;10.248;2023-04-20T00:43:13;101532.00;;;10.49;70.20
2549;BME280;1284;53.520;10.248;2023-04-20T00:45:39;101526.19;;;10.59;70.13
2549;BME280;1284;53.520;10.248;2023-04-20T00:48:06;101519.66;;;10.48;71.75
2549;BME280;1284;53.520;10.248;2023-04-20T00:50:32;101522.34;;;10.48;72.38
2549;BME280;1284;53.520;10.248;2023-04-20T00:52:59;101523.16;;;10.49;72.34
2549;BME280;1284;53.520;10.248;2023-04-20T00:55:25;101522.84;;;10.30;73.65
2549;BME280;1284;53.520;10.248;2023-04-20T00:57:51;101507.59;;;10.34;74.06
2549;BME280;1284;53.520;10.248;2023-04-20T01:00:17;101510.44;;;10.37;73.85
2549;BME280;1284;53.520;10.248;2023-04-20T01:02:42;101520.16;;;10.30;75.45
2549;BME280;1284;53.520;10.248;2023-04-20T01:05:08;101524.81;;;10.21;75.21
2549;BME280;1284;53.520;10.248;2023-04-20T01:07:34;101505.97;;;10.21;75.66
2549;BME280;1284;53.520;10.248;2023-04-20T01:10:01;101503.56;;;10.28;75.91
2549;BME280;1284;53.520;10.248;2023-04-20T01:12:26;101492.69;;;10.36;75.19
2549;BME280;1284;53.520;10.248;2023-04-20T01:14:52;101498.75;;;10.33;75.43
2549;BME280;1284;53.520;10.248;2023-04-20T01:17:18;101495.78;;;10.26;75.50
2549;BME280;1284;53.520;10.248;2023-04-20T01:19:47;101509.06;;;10.31;76.27
2549;BME280;1284;53.520;10.248;2023-04-20T01:22:18;101510.75;;;10.36;76.79
2549;BME280;1284;53.520;10.248;2023-04-20T01:24:44;101505.25;;;10.32;76.72
2549;BME280;1284;53.520;10.248;2023-04-20T01:27:11;101491.66;;;10.29;76.62
2549;BME280;1284;53.520;10.248;2023-04-20T01:29:39;101502.66;;;10.36;76.72
2549;BME280;1284;53.520;10.248;2023-04-20T01:32:05;101498.13;;;10.48;75.81
2549;BME280;1284;53.520;10.248;2023-04-20T01:34:30;101502.94;;;10.43;76.00
2549;BME280;1284;53.520;10.248;2023-04-20T01:36:56;101502.94;;;10.43;76.44
2549;BME280;1284;53.520;10.248;2023-04-20T01:39:22;101494.97;;;10.46;76.30
2549;BME280;1284;53.520;10.248;2023-04-20T01:41:48;101489.06;;;10.53;76.31
2549;BME280;1284;53.520;10.248;2023-04-20T01:44:16;101487.69;;;10.47;76.48
2549;BME280;1284;53.520;10.248;2023-04-20T01:46:42;101493.53;;;10.49;76.58
2549;BME280;1284;53.520;10.248;2023-04-20T01:49:08;101479.25;;;10.48;76.83
2549;BME280;1284;53.520;10.248;2023-04-20T01:51:35;101468.25;;;10.53;76.44
2549;BME280;1284;53.520;10.248;2023-04-20T01:59:14;101470.72;;;10.46;76.14
2549;BME280;1284;53.520;10.248;2023-04-20T02:01:39;101466.44;;;10.45;76.05
2549;BME280;1284;53.520;10.248;2023-04-20T02:04:05;101476.34;;;10.41;75.57
2549;BME280;1284;53.520;10.248;2023-04-20T02:06:30;101467.81;;;10.39;75.38
2549;BME280;1284;53.520;10.248;2023-04-20T02:08:58;101453.56;;;10.39;75.60
2549;BME280;1284;53.520;10.248;2023-04-20T02:11:26;101441.75;;;10.43;75.17
2549;BME280;1284;53.520;10.248;2023-04-20T02:13:51;101440.22;;;10.42;75.11
2549;BME280;1284;53.520;10.248;2023-04-20T02:16:18;101442.09;;;10.42;74.78
2549;BME280;1284;53.520;10.248;2023-04-20T02:18:44;101445.03;;;10.37;74.94
2549;BME280;1284;53.520;10.248;2023-04-20T02:21:10;101434.25;;;10.37;74.50
2549;BME280;1284;53.520;10.248;2023-04-20T02:23:36;101439.28;;;10.38;74.48
2549;BME280;1284;53.520;10.248;2023-04-20T02:26:01;101452.09;;;10.41;74.07
2549;BME280;1284;53.520;10.248;2023-04-20T02:28:27;101440.88;;;10.39;73.57
2549;BME280;1284;53.520;10.248;2023-04-20T02:30:52;101431.34;;;10.42;73.49
2549;BME280;1284;53.520;10.248;2023-04-20T02:33:18;101430.13;;;10.39;73.12
2549;BME280;1284;53.520;10.248;2023-04-20T02:35:45;101431.56;;;10.37;72.95
2549;BME280;1284;53.520;10.248;2023-04-20T02:38:11;101428.50;;;10.26;72.90
2549;BME280;1284;53.520;10.248;2023-04-20T02:40:37;101434.09;;;10.21;72.87
2549;BME280;1284;53.520;10.248;2023-04-20T02:43:03;101434.34;;;10.28;72.70
2549;BME280;1284;53.520;10.248;2023-04-20T02:45:29;101428.19;;;10.28;72.49
2549;BME280;1284;53.520;10.248;2023-04-20T02:47:55;101435.47;;;10.27;72.38
2549;BME280;1284;53.520;10.248;2023-04-20T02:50:22;101430.38;;;10.14;71.97
2549;BME280;1284;53.520;10.248;2023-04-20T02:53:14;101439.47;;;10.21;72.24
2549;BME280;1284;53.520;10.248;2023-04-20T02:55:42;101438.50;;;10.26;72.27
2549;BME280;1284;53.520;10.248;2023-04-20T02:58:20;101434.03;;;10.09;72.53
2549;BME280;1284;53.520;10.248;2023-04-20T03:01:18;101437.66;;;10.13;72.32
2549;BME280;1284;53.520;10.248;2023-04-20T03:03:46;101437.59;;;10.22;71.66
2549;BME280;1284;53.520;10.248;2023-04-20T03:06:12;101437.81;;;10.29;71.39
2549;BME280;1284;53.520;10.248;2023-04-20T03:08:41;101441.09;;;10.34;71.32
2549;BME280;1284;53.520;10.248;2023-04-20T03:11:29;101442.88;;;10.30;71.58
2549;BME280;1284;53.520;10.248;2023-04-20T03:13:56;101438.56;;;10.17;70.81
2549;BME280;1284;53.520;10.248;2023-04-20T03:16:21;101437.78;;;10.17;71.32
2549;BME280;1284;53.520;10.248;2023-04-20T03:18:52;101429.75;;;10.29;70.99
2549;BME280;1284;53.520;10.248;2023-04-20T03:21:17;101433.13;;;10.38;70.97
2549;BME280;1284;53.520;10.248;2023-04-20T03:23:43;101436.91;;;10.25;71.28
2549;BME280;1284;53.520;10.248;2023-04-20T03:26:10;101439.47;;;10.21;71.20
2549;BME280;1284;53.520;10.248;2023-04-20T03:28:55;101431.06;;;10.23;71.95
2549;BME280;1284;53.520;10.248;2023-04-20T03:31:23;101434.34;;;10.28;72.13
2549;BME280;1284;53.520;10.248;2023-04-20T03:33:51;101443.66;;;10.31;73.36
2549;BME280;1284;53.520;10.248;2023-04-20T03:36:16;101440.59;;;10.20;73.89
2549;BME280;1284;53.520;10.248;2023-04-20T03:38:42;101438.00;;;10.12;75.09
2549;BME280;1284;53.520;10.248;2023-04-20T03:41:08;101441.19;;;10.05;76.22
2549;BME280;1284;53.520;10.248;2023-04-20T03:43:33;101429.50;;;10.01;76.95
2549;BME280;1284;53.520;10.248;2023-04-20T03:45:59;101439.06;;;9.98;77.07
2549;BME280;1284;53.520;10.248;2023-04-20T03:48:24;101438.78;;;10.12;77.00
2549;BME280;1284;53.520;10.248;2023-04-20T03:50:51;101424.41;;;10.08;77.94
2549;BME280;1284;53.520;10.248;2023-04-20T03:53:16;101431.34;;;10.09;78.39
2549;BME280;1284;53.520;10.248;2023-04-20T03:55:42;101429.38;;;10.18;78.16
2549;BME280;1284;53.520;10.248;2023-04-20T03:58:11;101431.50;;;10.13;78.55
2549;BME280;1284;53.520;10.248;2023-04-20T04:01:04;101425.03;;;10.05;79.02
2549;BME280;1284;53.520;10.248;2023-04-20T04:03:33;101428.59;;;9.97;80.16
2549;BME280;1284;53.520;10.248;2023-04-20T04:06:01;101422.47;;;9.96;80.60
2549;BME280;1284;53.520;10.248;2023-04-20T04:08:27;101424.94;;;10.01;80.14
2549;BME280;1284;53.520;10.248;2023-04-20T04:10:53;101419.19;;;9.91;81.17
2549;BME280;1284;53.520;10.248;2023-04-20T04:13:19;101427.91;;;9.88;81.20
2549;BME280;1284;53.520;10.248;2023-04-20T04:15:45;101427.09;;;9.87;81.96
2549;BME280;1284;53.520;10.248;2023-04-20T04:18:12;101424.56;;;9.91;81.81
2549;BME280;1284;53.520;10.248;2023-04-20T04:20:39;101435.44;;;9.94;82.61
2549;BME280;1284;53.520;10.248;2023-04-20T04:23:05;101440.09;;;9.85;82.55
2549;BME280;1284;53.520;10.248;2023-04-20T04:25:38;101441.00;;;9.77;83.22
2549;BME280;1284;53.520;10.248;2023-04-20T04:28:05;101445.75;;;9.72;83.94
2549;BME280;1284;53.520;10.248;2023-04-20T04:30:33;101424.19;;;9.80;83.86
2549;BME280;1284;53.520;10.248;2023-04-20T04:32:59;101444.97;;;9.92;83.44
2549;BME280;1284;53.520;10.248;2023-04-20T04:35:26;101422.53;;;9.88;84.14
2549;BME280;1284;53.520;10.248;2023-04-20T04:37:55;101429.56;;;9.80;84.63
2549;BME280;1284;53.520;10.248;2023-04-20T04:40:20;101429.22;;;9.82;84.55
2549;BME280;1284;53.520;10.248;2023-04-20T04:42:50;101427.44;;;9.86;84.46
2549;BME280;1284;53.520;10.248;2023-04-20T04:45:17;101434.16;;;9.80;84.72
2549;BME280;1284;53.520;10.248;2023-04-20T04:47:43;101437.16;;;9.78;84.91
2549;BME280;1284;53.520;10.248;2023-04-20T04:50:09;101431.09;;;9.69;85.83
2549;BME280;1284;53.520;10.248;2023-04-20T04:52:35;101446.75;;;9.47;86.70
2549;BME280;1284;53.520;10.248;2023-04-20T04:57:27;101435.28;;;9.38;87.98
2549;BME280;1284;53.520;10.248;2023-04-20T04:59:55;101437.91;;;9.46;87.90
2549;BME280;1284;53.520;10.248;2023-04-20T05:02:20;101435.34;;;9.50;87.87
2549;BME280;1284;53.520;10.248;2023-04-20T05:07:11;101435.97;;;9.47;88.19
2549;BME280;1284;53.520;10.248;2023-04-20T05:09:38;101439.41;;;9.56;88.40
2549;BME280;1284;53.520;10.248;2023-04-20T05:12:05;101434.16;;;9.59;88.07
2549;BME280;1284;53.520;10.248;2023-04-20T05:14:30;101447.59;;;9.59;88.30
2549;BME280;1284;53.520;10.248;2023-04-20T05:16:57;101452.66;;;9.61;88.57
2549;BME280;1284;53.520;10.248;2023-04-20T05:19:23;101442.59;;;9.70;88.42
2549;BME280;1284;53.520;10.248;2023-04-20T05:21:48;101448.06;;;9.61;87.81
2549;BME280;1284;53.520;10.248;2023-04-20T05:24:17;101438.63;;;9.55;88.19
2549;BME280;1284;53.520;10.248;2023-04-20T05:26:44;101445.44;;;9.53;88.49
2549;BME280;1284;53.520;10.248;2023-04-20T05:29:10;101445.56;;;9.36;89.03
2549;BME280;1284;53.520;10.248;2023-04-20T05:31:35;101448.34;;;9.48;89.18
2549;BME280;1284;53.520;10.248;2023-04-20T05:34:01;101441.19;;;9.52;89.31
2549;BME280;1284;53.520;10.248;2023-04-20T05:36:27;101447.94;;;9.58;89.00
2549;BME280;1284;53.520;10.248;2023-04-20T05:38:54;101448.25;;;9.56;89.12
2549;BME280;1284;53.520;10.248;2023-04-20T05:41:20;101441.97;;;9.52;89.61
2549;BME280;1284;53.520;10.248;2023-04-20T05:43:51;101461.66;;;9.44;90.21
2549;BME280;1284;53.520;10.248;2023-04-20T05:46:16;101458.16;;;9.44;90.52
2549;BME280;1284;53.520;10.248;2023-04-20T05:48:42;101459.25;;;9.43;90.89
2549;BME280;1284;53.520;10.248;2023-04-20T05:51:07;101468.91;;;9.44;90.74
2549;BME280;1284;53.520;10.248;2023-04-20T05:53:32;101463.63;;;9.56;90.19
2549;BME280;1284;53.520;10.248;2023-04-20T05:55:58;101465.38;;;9.52;90.87
2549;BME280;1284;53.520;10.248;2023-04-20T05:58:24;101468.97;;;9.35;91.17
2549;BME280;1284;53.520;10.248;2023-04-20T06:03:35;101465.19;;;9.57;91.23
2549;BME280;1284;53.520;10.248;2023-04-20T06:06:04;101468.78;;;9.61;91.02
2549;BME280;1284;53.520;10.248;2023-04-20T06:08:30;101459.28;;;9.63;91.28
2549;BME280;1284;53.520;10.248;2023-04-20T06:10:55;101463.66;;;9.68;91.20
2549;BME280;1284;53.520;10.248;2023-04-20T06:13:22;101455.94;;;9.66;91.79
2549;BME280;1284;53.520;10.248;2023-04-20T06:15:48;101463.34;;;9.69;91.55
2549;BME280;1284;53.520;10.248;2023-04-20T06:18:14;101463.19;;;9.66;92.00
2549;BME280;1284;53.520;10.248;2023-04-20T06:20:39;101461.66;;;9.44;92.22
2549;BME280;1284;53.520;10.248;2023-04-20T06:23:07;101467.75;;;9.53;92.40
2549;BME280;1284;53.520;10.248;2023-04-20T06:25:35;101472.91;;;9.58;91.73
2549;BME280;1284;53.520;10.248;2023-04-20T06:28:01;101458.38;;;9.59;92.76
2549;BME280;1284;53.520;10.248;2023-04-20T06:30:27;101458.91;;;9.73;92.12
2549;BME280;1284;53.520;10.248;2023-04-20T06:32:53;101448.78;;;9.70;91.77
2549;BME280;1284;53.520;10.248;2023-04-20T06:35:18;101457.13;;;9.77;92.21
2549;BME280;1284;53.520;10.248;2023-04-20T06:37:44;101461.31;;;9.87;91.99
2549;BME280;1284;53.520;10.248;2023-04-20T06:40:09;101468.94;;;9.85;92.61
2549;BME280;1284;53.520;10.248;2023-04-20T06:42:35;101474.03;;;9.78;92.39
2549;BME280;1284;53.520;10.248;2023-04-20T06:45:01;101468.78;;;9.61;92.73
2549;BME280;1284;53.520;10.248;2023-04-20T06:47:26;101469.50;;;9.70;92.79
2549;BME280;1284;53.520;10.248;2023-04-20T06:49:57;101471.34;;;9.78;92.13
2549;BME280;1284;53.520;10.248;2023-04-20T06:52:22;101477.19;;;9.59;92.90
2549;BME280;1284;53.520;10.248;2023-04-20T06:54:48;101479.66;;;9.64;93.14
2549;BME280;1284;53.520;10.248;2023-04-20T06:57:13;101482.34;;;9.64;93.49
2549;BME280;1284;53.520;10.248;2023-04-20T06:59:39;101477.38;;;9.75;92.98
2549;BME280;1284;53.520;10.248;2023-04-20T07:02:04;101483.59;;;9.87;92.65
2549;BME280;1284;53.520;10.248;2023-04-20T07:04:30;101489.78;;;9.88;92.09
2549;BME280;1284;53.520;10.248;2023-04-20T07:06:55;101485.91;;;9.77;92.65
2549;BME280;1284;53.520;10.248;2023-04-20T07:09:20;101488.03;;;9.71;93.14
2549;BME280;1284;53.520;10.248;2023-04-20T07:11:47;101490.44;;;9.85;92.78
2549;BME280;1284;53.520;10.248;2023-04-20T07:14:13;101479.69;;;9.85;92.58
2549;BME280;1284;53.520;10.248;2023-04-20T07:16:38;101486.16;;;9.84;92.63
2549;BME280;1284;53.520;10.248;2023-04-20T07:19:04;101486.84;;;9.81;92.42
2549;BME280;1284;53.520;10.248;2023-04-20T07:21:29;101497.22;;;9.91;91.58
2549;BME280;1284;53.520;10.248;2023-04-20T07:23:56;101485.31;;;9.92;91.54
2549;BME280;1284;53.520;10.248;2023-04-20T07:26:24;101486.50;;;9.82;92.32
2549;BME280;1284;53.520;10.248;2023-04-20T07:31:16;101484.28;;;9.84;92.69
2549;BME280;1284;53.520;10.248;2023-04-20T07:33:42;101484.44;;;9.79;92.89
2549;BME280;1284;53.520;10.248;2023-04-20T07:36:08;101491.09;;;9.82;93.05
2549;BME280;1284;53.520;10.248;2023-04-20T07:38:34;101497.25;;;9.82;93.55
2549;BME280;1284;53.520;10.248;2023-04-20T07:41:00;101491.09;;;9.82;93.60
2549;BME280;1284;53.520;10.248;2023-04-20T07:43:26;101501.06;;;9.81;93.95
2549;BME280;1284;53.520;10.248;2023-04-20T07:45:51;101500.94;;;9.78;94.80
2549;BME280;1284;53.520;10.248;2023-04-20T07:48:17;101504.88;;;9.80;94.67
2549;BME280;1284;53.520;10.248;2023-04-20T07:50:45;101512.09;;;9.88;94.43
2549;BME280;1284;53.520;10.248;2023-04-20T07:53:11;101516.44;;;9.81;94.63
2549;BME280;1284;53.520;10.248;2023-04-20T07:55:36;101519.97;;;9.73;94.51
2549;BME280;1284;53.520;10.248;2023-04-20T07:58:02;101524.75;;;9.67;95.11
2549;BME280;1284;53.520;10.248;2023-04-20T08:00:28;101520.84;;;9.56;95.54
2549;BME280;1284;53.520;10.248;2023-04-20T08:02:56;101514.84;;;9.80;94.52
2549;BME280;1284;53.520;10.248;2023-04-20T08:05:22;101521.69;;;9.77;94.12
2549;BME280;1284;53.520;10.248;2023-04-20T08:07:48;101531.34;;;9.70;94.66
2549;BME280;1284;53.520;10.248;2023-04-20T08:10:14;101523.50;;;9.65;94.50
2549;BME280;1284;53.520;10.248;2023-04-20T08:12:39;101518.69;;;9.50;94.93
2549;BME280;1284;53.520;10.248;2023-04-20T08:15:05;101529.72;;;9.57;95.24
2549;BME280;1284;53.520;10.248;2023-04-20T08:17:32;101527.56;;;9.50;95.46
2549;BME280;1284;53.520;10.248;2023-04-20T08:19:57;101537.28;;;9.63;94.70
2549;BME280;1284;53.520;10.248;2023-04-20T08:22:23;101527.44;;;9.67;94.99
2549;BME280;1284;53.520;10.248;2023-04-20T08:24:51;101537.03;;;9.48;94.90
2549;BME280;1284;53.520;10.248;2023-04-20T08:27:16;101536.47;;;9.63;95.37
2549;BME280;1284;53.520;10.248;2023-04-20T08:29:42;101529.13;;;9.72;95.50
2549;BME280;1284;53.520;10.248;2023-04-20T08:32:07;101522.97;;;9.71;95.90
2549;BME280;1284;53.520;10.248;2023-04-20T08:34:34;101522.72;;;9.85;95.49
2549;BME280;1284;53.520;10.248;2023-04-20T08:36:59;101508.84;;;9.95;95.17
2549;BME280;1284;53.520;10.248;2023-04-20T08:39:24;101523.09;;;9.95;95.79
2549;BME280;1284;53.520;10.248;2023-04-20T08:41:50;101531.19;;;9.95;95.36
2549;BME280;1284;53.520;10.248;2023-04-20T08:44:20;101536.50;;;10.04;95.44
2549;BME280;1284;53.520;10.248;2023-04-20T08:46:47;101534.00;;;9.99;95.82
2549;BME280;1284;53.520;10.248;2023-04-20T08:49:16;101521.44;;;10.12;95.98
2549;BME280;1284;53.520;10.248;2023-04-20T08:51:43;101519.72;;;10.28;96.10
2549;BME280;1284;53.520;10.248;2023-04-20T08:54:09;101517.59;;;10.33;95.91
2549;BME280;1284;53.520;10.248;2023-04-20T08:56:37;101525.75;;;10.25;96.38
2549;BME280;1284;53.520;10.248;2023-04-20T08:59:03;101532.03;;;10.29;95.53
2549;BME280;1284;53.520;10.248;2023-04-20T09:01:34;101532.28;;;10.36;94.68
2549;BME280;1284;53.520;10.248;2023-04-20T09:04:00;101536.69;;;10.40;95.57
2549;BME280;1284;53.520;10.248;2023-04-20T09:06:26;101536.84;;;10.56;94.95
2549;BME280;1284;53.520;10.248;2023-04-20T09:08:52;101539.88;;;10.54;95.04
2549;BME280;1284;53.520;10.248;2023-04-20T09:11:25;101532.53;;;10.43;95.14
2549;BME280;1284;53.520;10.248;2023-04-20T09:14:01;101538.00;;;10.34;94.39
2549;BME280;1284;53.520;10.248;2023-04-20T09:16:28;101538.13;;;10.38;94.79
2549;BME280;1284;53.520;10.248;2023-04-20T09:18:54;101537.72;;;10.48;94.80
2549;BME280;1284;53.520;10.248;2023-04-20T09:21:21;101550.25;;;10.44;95.13
2549;BME280;1284;53.520;10.248;2023-04-20T09:24:03;101546.69;;;10.52;95.19
2549;BME280;1284;53.520;10.248;2023-04-20T09:26:34;101559.75;;;10.62;94.63
2549;BME280;1284;53.520;10.248;2023-04-20T09:29:03;101566.97;;;10.70;94.66
2549;BME280;1284;53.520;10.248;2023-04-20T09:31:29;101563.03;;;10.67;94.72
2549;BME280;1284;53.520;10.248;2023-04-20T09:34:02;101555.25;;;10.54;94.70
2549;BME280;1284;53.520;10.248;2023-04-20T09:36:47;101552.66;;;10.57;94.52
2549;BME280;1284;53.520;10.248;2023-04-20T09:39:18;101533.56;;;10.50;95.03
2549;BME280;1284;53.520;10.248;2023-04-20T09:41:44;101535.72;;;10.57;95.00
2549;BME280;1284;53.520;10.248;2023-04-20T09:44:11;101533.28;;;10.64;95.61
2549;BME280;1284;53.520;10.248;2023-04-20T09:46:38;101535.22;;;10.75;96.32
2549;BME280;1284;53.520;10.248;2023-04-20T09:49:06;101533.44;;;10.79;96.17
2549;BME280;1284;53.520;10.248;2023-04-20T09:51:35;101532.88;;;10.98;96.78
2549;BME280;1284;53.520;10.248;2023-04-20T09:54:02;101540.88;;;11.31;96.10
2549;BME280;1284;53.520;10.248;2023-04-20T09:56:28;101537.19;;;11.47;96.68
2549;BME280;1284;53.520;10.248;2023-04-20T09:58:57;101549.63;;;11.64;96.15
2549;BME280;1284;53.520;10.248;2023-04-20T10:01:23;101556.28;;;11.78;95.94
2549;BME280;1284;53.520;10.248;2023-04-20T10:03:50;101563.44;;;11.87;93.69
2549;BME280;1284;53.520;10.248;2023-04-20T10:06:28;101570.22;;;11.81;92.64
2549;BME280;1284;53.520;10.248;2023-04-20T10:08:55;101568.72;;;11.83;92.30
2549;BME280;1284;53.520;10.248;2023-04-20T10:11:34;101571.66;;;11.90;91.53
2549;BME280;1284;53.520;10.248;2023-04-20T10:14:16;101571.13;;;11.72;91.46
2549;BME280;1284;53.520;10.248;2023-04-20T10:16:42;101571.47;;;11.71;91.16
2549;BME280;1284;53.520;10.248;2023-04-20T10:19:08;101574.28;;;11.74;91.32
2549;BME280;1284;53.520;10.248;2023-04-20T10:21:47;101566.75;;;11.68;91.85
2549;BME280;1284;53.520;10.248;2023-04-20T10:24:14;101578.63;;;11.55;91.22
2549;BME280;1284;53.520;10.248;2023-04-20T10:26:42;101576.84;;;11.35;92.65
2549;BME280;1284;53.520;10.248;2023-04-20T10:29:09;101576.16;;;11.50;92.29
2549;BME280;1284;53.520;10.248;2023-04-20T10:31:38;101575.38;;;11.49;93.27
2549;BME280;1284;53.520;10.248;2023-04-20T10:34:05;101566.25;;;11.54;92.79
2549;BME280;1284;53.520;10.248;2023-04-20T10:36:36;101559.53;;;11.72;92.14
2549;BME280;1284;53.520;10.248;2023-04-20T10:39:35;101564.03;;;11.68;92.56
2549;BME280;1284;53.520;10.248;2023-04-20T10:42:02;101570.78;;;11.74;92.54
2549;BME280;1284;53.520;10.248;2023-04-20T10:44:28;101564.13;;;11.59;92.65
2549;BME280;1284;53.520;10.248;2023-04-20T10:46:55;101562.66;;;11.86;91.95
2549;BME280;1284;53.520;10.248;2023-04-20T10:49:25;101561.69;;;11.78;92.44
2549;BME280;1284;53.520;10.248;2023-04-20T10:51:51;101562.78;;;11.77;93.08
2549;BME280;1284;53.520;10.248;2023-04-20T10:54:20;101562.66;;;11.86;92.87
2549;BME280;1284;53.520;10.248;2023-04-20T10:56:47;101554.66;;;11.90;92.07
2549;BME280;1284;53.520;10.248;2023-04-20T11:01:40;101545.47;;;11.78;91.56
2549;BME280;1284;53.520;10.248;2023-04-20T11:04:07;101554.34;;;11.79;92.72
2549;BME280;1284;53.520;10.248;2023-04-20T11:06:35;101546.25;;;11.79;91.98
2549;BME280;1284;53.520;10.248;2023-04-20T11:09:01;101551.34;;;11.68;92.77
2549;BME280;1284;53.520;10.248;2023-04-20T11:11:27;101548.06;;;11.63;92.50
2549;BME280;1284;53.520;10.248;2023-04-20T11:14:09;101553.59;;;11.66;92.81
2549;BME280;1284;53.520;10.248;2023-04-20T11:16:36;101553.78;;;11.73;93.06
2549;BME280;1284;53.520;10.248;2023-04-20T11:19:01;101546.94;;;11.76;92.45
2549;BME280;1284;53.520;10.248;2023-04-20T11:21:40;101549.28;;;11.77;92.97
2549;BME280;1284;53.520;10.248;2023-04-20T11:24:17;101553.78;;;11.73;92.29
2549;BME280;1284;53.520;10.248;2023-04-20T11:26:46;101551.22;;;11.65;91.93
2549;BME280;1284;53.520;10.248;2023-04-20T11:29:38;101551.88;;;11.50;92.28
2549;BME280;1284;53.520;10.248;2023-04-20T11:32:05;101557.28;;;11.38;92.38
2549;BME280;1284;53.520;10.248;2023-04-20T11:34:32;101558.75;;;11.47;92.04
2549;BME280;1284;53.520;10.248;2023-04-20T11:37:03;101558.84;;;11.39;92.06
2549;BME280;1284;53.520;10.248;2023-04-20T11:39:29;101549.41;;;11.45;92.46
2549;BME280;1284;53.520;10.248;2023-04-20T11:41:55;101560.09;;;11.41;92.45
2549;BME280;1284;53.520;10.248;2023-04-20T11:44:23;101554.56;;;11.50;92.74
2549;BME280;1284;53.520;10.248;2023-04-20T11:46:50;101550.41;;;11.52;92.42
2549;BME280;1284;53.520;10.248;2023-04-20T11:49:18;101555.06;;;11.40;92.53
2549;BME280;1284;53.520;10.248;2023-04-20T11:51:44;101554.38;;;11.43;93.02
2549;BME280;1284;53.520;10.248;2023-04-20T11:54:14;101549.06;;;11.46;92.91
2549;BME280;1284;53.520;10.248;2023-04-20T11:56:40;101550.06;;;11.54;92.27
2549;BME280;1284;53.520;10.248;2023-04-20T11:59:07;101551.56;;;11.51;92.38
2549;BME280;1284;53.520;10.248;2023-04-20T12:01:33;101557.84;;;11.67;91.61
2549;BME280;1284;53.520;10.248;2023-04-20T12:03:59;101565.34;;;11.50;92.59
2549;BME280;1284;53.520;10.248;2023-04-20T12:06:28;101567.25;;;11.61;92.34
2549;BME280;1284;53.520;10.248;2023-04-20T12:08:54;101551.22;;;11.53;93.87
2549;BME280;1284;53.520;10.248;2023-04-20T12:11:20;101550.75;;;11.51;93.62
2549;BME280;1284;53.520;10.248;2023-04-20T12:13:45;101555.94;;;11.68;93.53
2549;BME280;1284;53.520;10.248;2023-04-20T12:16:11;101556.84;;;11.72;93.53
2549;BME280;1284;53.520;10.248;2023-04-20T12:18:37;101558.75;;;11.71;93.49
2549;BME280;1284;53.520;10.248;2023-04-20T12:21:02;101562.44;;;11.79;93.43
2549;BME280;1284;53.520;10.248;2023-04-20T12:23:28;101569.88;;;11.70;94.36
2549;BME280;1284;53.520;10.248;2023-04-20T12:25:53;101564.50;;;11.70;94.04
2549;BME280;1284;53.520;10.248;2023-04-20T12:28:19;101579.56;;;11.71;94.58
2549;BME280;1284;53.520;10.248;2023-04-20T12:30:45;101575.28;;;11.70;94.55
2549;BME280;1284;53.520;10.248;2023-04-20T12:33:13;101568.44;;;11.72;94.25
2549;BME280;1284;53.520;10.248;2023-04-20T12:35:38;101572.47;;;11.78;94.94
2549;BME280;1284;53.520;10.248;2023-04-20T12:38:04;101569.44;;;11.68;95.10
2549;BME280;1284;53.520;10.248;2023-04-20T12:40:29;101569.19;;;11.73;94.98
2549;BME280;1284;53.520;10.248;2023-04-20T12:42:55;101564.16;;;11.71;94.69
2549;BME280;1284;53.520;10.248;2023-04-20T12:45:20;101555.84;;;11.76;95.66
2549;BME280;1284;53.520;10.248;2023-04-20T12:50:11;101555.84;;;12.04;95.51
2549;BME280;1284;53.520;10.248;2023-04-20T12:52:37;101551.13;;;12.13;95.16
2549;BME280;1284;53.520;10.248;2023-04-20T12:55:04;101558.97;;;12.18;94.40
2549;BME280;1284;53.520;10.248;2023-04-20T12:57:30;101547.91;;;12.23;94.74
2549;BME280;1284;53.520;10.248;2023-04-20T12:59:55;101548.28;;;12.22;95.18
2549;BME280;1284;53.520;10.248;2023-04-20T13:02:21;101544.81;;;12.37;94.85
2549;BME280;1284;53.520;10.248;2023-04-20T13:04:46;101533.09;;;12.45;95.00
2549;BME280;1284;53.520;10.248;2023-04-20T13:07:12;101534.41;;;12.51;95.12
2549;BME280;1284;53.520;10.248;2023-04-20T13:09:37;101540.25;;;12.53;93.88
2549;BME280;1284;53.520;10.248;2023-04-20T13:12:03;101535.28;;;12.55;93.11
2549;BME280;1284;53.520;10.248;2023-04-20T13:14:29;101529.72;;;12.48;93.23
2549;BME280;1284;53.520;10.248;2023-04-20T13:16:54;101524.13;;;12.56;93.35
2549;BME280;1284;53.520;10.248;2023-04-20T13:19:20;101531.03;;;12.54;93.04
2549;BME280;1284;53.520;10.248;2023-04-20T13:21:45;101523.91;;;12.61;92.69
2549;BME280;1284;53.520;10.248;2023-04-20T13:24:10;101522.41;;;12.64;93.26
2549;BME280;1284;53.520;10.248;2023-04-20T13:26:36;101523.19;;;12.64;93.23